TVF4495 GCTS-LFLL
Flight info
| Callsign | TVF4495 |
|---|---|
| Flight time | 3h 32m |
| Altitude | 32000 |
| Route | KORAL/N0460F340 UG5 SONSO DCT NIRAL UN871 ADUBI DCT VJF L27 MAR DCT ALCOL DCT LOGRO DCT ETANA DCT VTB DCT PALIO DCT SEGRE DCT YAKXU DCT RONNY DCT TOPTU DCT TOU DCT GAI/N0457F300 DCT MEN/N0429F260 DCT NINUN G53 MEZIN |
| Aircraft | B738/M-SDE2E3FGHIRWXY/LB1 |
Departure
| Time | 2026-04-27 09:06 |
|---|---|
| Airport | Tenerife Sur Airport (GCTS) |
Arrival
| Time | 2026-04-27 12:38 |
|---|---|
| Airport | Lyon Saint-Exupéry Airport (LFLL) |
| Time | Latitude | Longitude | Altitude | Speed | Heading |
|---|---|---|---|---|---|
| 2026-04-27 08:47 | 28.04563 | -16.58211 | 218 ft | 0 kts | 338° |
| 2026-04-27 08:58 | 28.04560 | -16.58210 | 218 ft | 2 kts | 338° |
| 2026-04-27 08:58 | 28.04546 | -16.58201 | 218 ft | 3 kts | 313° |
| 2026-04-27 08:58 | 28.04537 | -16.58182 | 218 ft | 3 kts | 275° |
| 2026-04-27 08:58 | 28.04541 | -16.58159 | 218 ft | 3 kts | 248° |
| 2026-04-27 08:59 | 28.04543 | -16.58155 | 218 ft | 0 kts | 248° |
| 2026-04-27 09:00 | 28.04542 | -16.58155 | 218 ft | 0 kts | 248° |
| 2026-04-27 09:00 | 28.04534 | -16.58180 | 218 ft | 7 kts | 248° |
| 2026-04-27 09:00 | 28.04510 | -16.58220 | 218 ft | 4 kts | 209° |
| 2026-04-27 09:01 | 28.04493 | -16.58221 | 218 ft | 1 kts | 186° |
| 2026-04-27 09:01 | 28.04491 | -16.58222 | 218 ft | 1 kts | 191° |
| 2026-04-27 09:01 | 28.04477 | -16.58233 | 218 ft | 4 kts | 222° |
| 2026-04-27 09:01 | 28.04457 | -16.58282 | 218 ft | 9 kts | 246° |
| 2026-04-27 09:02 | 28.04408 | -16.58333 | 218 ft | 11 kts | 180° |
| 2026-04-27 09:02 | 28.04360 | -16.58315 | 218 ft | 9 kts | 157° |
| 2026-04-27 09:02 | 28.04308 | -16.58294 | 218 ft | 6 kts | 184° |
| 2026-04-27 09:02 | 28.04274 | -16.58329 | 218 ft | 8 kts | 251° |
| 2026-04-27 09:03 | 28.04246 | -16.58414 | 218 ft | 15 kts | 249° |
| 2026-04-27 09:03 | 28.04199 | -16.58550 | 218 ft | 22 kts | 246° |
| 2026-04-27 09:03 | 28.04142 | -16.58707 | 218 ft | 18 kts | 248° |
| 2026-04-27 09:03 | 28.04103 | -16.58816 | 218 ft | 13 kts | 244° |
| 2026-04-27 09:04 | 28.04015 | -16.58835 | 218 ft | 17 kts | 158° |
| 2026-04-27 09:04 | 28.03941 | -16.58741 | 218 ft | 13 kts | 102° |
| 2026-04-27 09:04 | 28.03948 | -16.58690 | 218 ft | 0 kts | 68° |
| 2026-04-27 09:05 | 28.03951 | -16.58682 | 218 ft | 14 kts | 68° |
| 2026-04-27 09:05 | 28.04130 | -16.58186 | 218 ft | 120 kts | 68° |
| 2026-04-27 09:06 | 28.04531 | -16.56992 | 240 ft | 203 kts | 70° |
| 2026-04-27 09:06 | 28.05060 | -16.55377 | 1068 ft | 235 kts | 70° |
| 2026-04-27 09:06 | 28.05637 | -16.53583 | 1834 ft | 241 kts | 69° |
| 2026-04-27 09:06 | 28.06255 | -16.51833 | 2508 ft | 244 kts | 68° |
| 2026-04-27 09:07 | 28.06906 | -16.50048 | 3227 ft | 244 kts | 68° |
| 2026-04-27 09:07 | 28.07559 | -16.48254 | 3979 ft | 249 kts | 69° |
| 2026-04-27 09:07 | 28.08095 | -16.46376 | 4741 ft | 251 kts | 77° |
| 2026-04-27 09:07 | 28.08458 | -16.44419 | 5419 ft | 258 kts | 79° |
| 2026-04-27 09:08 | 28.08719 | -16.42403 | 6050 ft | 264 kts | 81° |
| 2026-04-27 09:08 | 28.08938 | -16.40314 | 6658 ft | 263 kts | 84° |
| 2026-04-27 09:08 | 28.09120 | -16.38291 | 7244 ft | 262 kts | 85° |
| 2026-04-27 09:08 | 28.09288 | -16.36227 | 7840 ft | 263 kts | 85° |
| 2026-04-27 09:09 | 28.09447 | -16.34147 | 8485 ft | 269 kts | 86° |
| 2026-04-27 09:09 | 28.09603 | -16.32042 | 9035 ft | 265 kts | 86° |
| 2026-04-27 09:09 | 28.09756 | -16.29943 | 9548 ft | 270 kts | 86° |
| 2026-04-27 09:09 | 28.09912 | -16.27814 | 10047 ft | 271 kts | 88° |
| 2026-04-27 09:10 | 28.10068 | -16.25670 | 10556 ft | 280 kts | 88° |
| 2026-04-27 09:10 | 28.10228 | -16.23392 | 11078 ft | 298 kts | 88° |
| 2026-04-27 09:10 | 28.10392 | -16.21042 | 11577 ft | 307 kts | 88° |
| 2026-04-27 09:10 | 28.10565 | -16.18597 | 12063 ft | 316 kts | 88° |
| 2026-04-27 09:11 | 28.10742 | -16.16083 | 12458 ft | 323 kts | 88° |
| 2026-04-27 09:11 | 28.10924 | -16.13541 | 12862 ft | 328 kts | 88° |
| 2026-04-27 09:11 | 28.11110 | -16.10941 | 13266 ft | 333 kts | 88° |
| 2026-04-27 09:11 | 28.11299 | -16.08312 | 13668 ft | 336 kts | 88° |
| 2026-04-27 09:12 | 28.11449 | -16.05644 | 14077 ft | 338 kts | 90° |
| 2026-04-27 09:12 | 28.11475 | -16.02969 | 14490 ft | 343 kts | 92° |
| 2026-04-27 09:12 | 28.11423 | -16.00273 | 14904 ft | 348 kts | 94° |
| 2026-04-27 09:12 | 28.11318 | -15.97508 | 15276 ft | 354 kts | 94° |
| 2026-04-27 09:13 | 28.11180 | -15.94710 | 15628 ft | 357 kts | 95° |
| 2026-04-27 09:13 | 28.11016 | -15.91883 | 15980 ft | 361 kts | 93° |
| 2026-04-27 09:13 | 28.10839 | -15.89037 | 16332 ft | 364 kts | 93° |
| 2026-04-27 09:13 | 28.10653 | -15.86158 | 16703 ft | 365 kts | 92° |
| 2026-04-27 09:14 | 28.10467 | -15.83327 | 17052 ft | 356 kts | 92° |
| 2026-04-27 09:14 | 28.10290 | -15.80570 | 17397 ft | 348 kts | 96° |
| 2026-04-27 09:14 | 28.10118 | -15.77878 | 17742 ft | 344 kts | 96° |
| 2026-04-27 09:14 | 28.09940 | -15.75191 | 18091 ft | 342 kts | 96° |
| 2026-04-27 09:15 | 28.09757 | -15.72501 | 18442 ft | 341 kts | 96° |
| 2026-04-27 09:15 | 28.09570 | -15.69819 | 18787 ft | 342 kts | 91° |
| 2026-04-27 09:15 | 28.09372 | -15.67123 | 19133 ft | 346 kts | 91° |
| 2026-04-27 09:15 | 28.09182 | -15.64381 | 19487 ft | 351 kts | 91° |
| 2026-04-27 09:16 | 28.08994 | -15.61600 | 19817 ft | 356 kts | 91° |
| 2026-04-27 09:16 | 28.08805 | -15.58793 | 20121 ft | 359 kts | 91° |
| 2026-04-27 09:16 | 28.08620 | -15.55964 | 20432 ft | 359 kts | 93° |
| 2026-04-27 09:16 | 28.08431 | -15.53160 | 20731 ft | 356 kts | 93° |
| 2026-04-27 09:17 | 28.08237 | -15.50371 | 21030 ft | 355 kts | 93° |
| 2026-04-27 09:17 | 28.08046 | -15.47592 | 21432 ft | 351 kts | 91° |
| 2026-04-27 09:17 | 28.08241 | -15.44890 | 21936 ft | 346 kts | 73° |
| 2026-04-27 09:17 | 28.08994 | -15.42304 | 22539 ft | 348 kts | 64° |
| 2026-04-27 09:18 | 28.10045 | -15.39815 | 23150 ft | 353 kts | 59° |
| 2026-04-27 09:18 | 28.11268 | -15.37371 | 23761 ft | 359 kts | 56° |
| 2026-04-27 09:18 | 28.12594 | -15.34942 | 24365 ft | 365 kts | 54° |
| 2026-04-27 09:18 | 28.13992 | -15.32496 | 24863 ft | 375 kts | 54° |
| 2026-04-27 09:19 | 28.15452 | -15.30005 | 25369 ft | 384 kts | 53° |
| 2026-04-27 09:19 | 28.16960 | -15.27463 | 25876 ft | 393 kts | 53° |
| 2026-04-27 09:19 | 28.18515 | -15.24860 | 26357 ft | 402 kts | 53° |
| 2026-04-27 09:19 | 28.20092 | -15.22234 | 26703 ft | 414 kts | 56° |
| 2026-04-27 09:20 | 28.21740 | -15.19496 | 27018 ft | 426 kts | 57° |
| 2026-04-27 09:20 | 28.23435 | -15.16664 | 27327 ft | 438 kts | 56° |
| 2026-04-27 09:20 | 28.25154 | -15.13782 | 27632 ft | 444 kts | 56° |
| 2026-04-27 09:20 | 28.26889 | -15.10867 | 27935 ft | 446 kts | 54° |
| 2026-04-27 09:21 | 28.28625 | -15.07944 | 28237 ft | 448 kts | 54° |
| 2026-04-27 09:21 | 28.30371 | -15.05006 | 28538 ft | 448 kts | 54° |
| 2026-04-27 09:21 | 28.32116 | -15.02070 | 28838 ft | 449 kts | 54° |
| 2026-04-27 09:21 | 28.33873 | -14.99116 | 29139 ft | 450 kts | 54° |
| 2026-04-27 09:22 | 28.35606 | -14.96200 | 29436 ft | 452 kts | 54° |
| 2026-04-27 09:22 | 28.37372 | -14.93227 | 29737 ft | 455 kts | 54° |
| 2026-04-27 09:22 | 28.39156 | -14.90224 | 30040 ft | 461 kts | 54° |
| 2026-04-27 09:22 | 28.40959 | -14.87187 | 30321 ft | 467 kts | 54° |
| 2026-04-27 09:23 | 28.42790 | -14.84100 | 30579 ft | 473 kts | 54° |
| 2026-04-27 09:23 | 28.44639 | -14.80981 | 30832 ft | 479 kts | 54° |
| 2026-04-27 09:23 | 28.46506 | -14.77828 | 31084 ft | 484 kts | 54° |
| 2026-04-27 09:23 | 28.48398 | -14.74630 | 31308 ft | 489 kts | 54° |
| 2026-04-27 09:24 | 28.50277 | -14.71451 | 31510 ft | 493 kts | 54° |
| 2026-04-27 09:24 | 28.52197 | -14.68199 | 31732 ft | 495 kts | 55° |
| 2026-04-27 09:24 | 28.54122 | -14.64935 | 31900 ft | 498 kts | 55° |
| 2026-04-27 09:24 | 28.56059 | -14.61650 | 32002 ft | 501 kts | 55° |
| 2026-04-27 09:25 | 28.58004 | -14.58346 | 32036 ft | 503 kts | 55° |
| 2026-04-27 09:25 | 28.61895 | -14.51724 | 32032 ft | 501 kts | 54° |
| 2026-04-27 09:26 | 28.65722 | -14.45193 | 32026 ft | 496 kts | 55° |
| 2026-04-27 09:26 | 28.69553 | -14.38668 | 32028 ft | 496 kts | 56° |
| 2026-04-27 09:27 | 28.73374 | -14.32144 | 32029 ft | 494 kts | 57° |
| 2026-04-27 09:27 | 28.77147 | -14.25679 | 32025 ft | 490 kts | 56° |
| 2026-04-27 09:28 | 28.80894 | -14.19245 | 32033 ft | 485 kts | 54° |
| 2026-04-27 09:28 | 28.82747 | -14.16050 | 32029 ft | 473 kts | 54° |
| 2026-04-27 09:28 | 28.84546 | -14.12944 | 32023 ft | 461 kts | 54° |
| 2026-04-27 09:29 | 28.88014 | -14.06964 | 32021 ft | 448 kts | 54° |
| 2026-04-27 09:29 | 28.91424 | -14.01087 | 32021 ft | 441 kts | 53° |
| 2026-04-27 09:30 | 28.94791 | -13.95285 | 32022 ft | 437 kts | 53° |
| 2026-04-27 09:30 | 28.98149 | -13.89494 | 32022 ft | 436 kts | 53° |
| 2026-04-27 09:31 | 29.01477 | -13.83747 | 32022 ft | 435 kts | 54° |
| 2026-04-27 09:31 | 29.04809 | -13.77982 | 32022 ft | 434 kts | 54° |
| 2026-04-27 09:32 | 29.08124 | -13.72240 | 32022 ft | 434 kts | 54° |
| 2026-04-27 09:32 | 29.11459 | -13.66453 | 32022 ft | 434 kts | 54° |
| 2026-04-27 09:33 | 29.14761 | -13.60714 | 32022 ft | 434 kts | 54° |
| 2026-04-27 09:33 | 29.18085 | -13.54929 | 32022 ft | 434 kts | 54° |
| 2026-04-27 09:34 | 29.21383 | -13.49179 | 32022 ft | 434 kts | 54° |
| 2026-04-27 09:34 | 29.24705 | -13.43381 | 32022 ft | 434 kts | 54° |
| 2026-04-27 09:35 | 29.28017 | -13.37590 | 32022 ft | 434 kts | 54° |
| 2026-04-27 09:35 | 29.31302 | -13.31838 | 32022 ft | 434 kts | 54° |
| 2026-04-27 09:36 | 29.34612 | -13.26035 | 32022 ft | 434 kts | 54° |
| 2026-04-27 09:36 | 29.37919 | -13.20229 | 32022 ft | 434 kts | 54° |
| 2026-04-27 09:37 | 29.41201 | -13.14458 | 32022 ft | 434 kts | 54° |
| 2026-04-27 09:37 | 29.44499 | -13.08652 | 32022 ft | 434 kts | 54° |
| 2026-04-27 09:38 | 29.47784 | -13.02858 | 32022 ft | 434 kts | 54° |
| 2026-04-27 09:38 | 29.51072 | -12.97052 | 32022 ft | 434 kts | 54° |
| 2026-04-27 09:39 | 29.54370 | -12.91220 | 32022 ft | 434 kts | 54° |
| 2026-04-27 09:39 | 29.57643 | -12.85424 | 32022 ft | 434 kts | 54° |
| 2026-04-27 09:40 | 29.60929 | -12.79594 | 32022 ft | 434 kts | 54° |
| 2026-04-27 09:40 | 29.64200 | -12.73784 | 32022 ft | 434 kts | 54° |
| 2026-04-27 09:41 | 29.67478 | -12.67950 | 32022 ft | 434 kts | 54° |
| 2026-04-27 09:41 | 29.70763 | -12.62095 | 32022 ft | 434 kts | 54° |
| 2026-04-27 09:42 | 29.74075 | -12.56313 | 32022 ft | 434 kts | 53° |
| 2026-04-27 09:42 | 29.77459 | -12.50542 | 32022 ft | 434 kts | 53° |
| 2026-04-27 09:43 | 29.80836 | -12.44834 | 32019 ft | 433 kts | 54° |
| 2026-04-27 09:43 | 29.84239 | -12.39105 | 32002 ft | 431 kts | 57° |
| 2026-04-27 09:44 | 29.87612 | -12.33403 | 31997 ft | 430 kts | 57° |
| 2026-04-27 09:44 | 29.90956 | -12.27724 | 31995 ft | 430 kts | 58° |
| 2026-04-27 09:45 | 29.94316 | -12.22001 | 31994 ft | 431 kts | 58° |
| 2026-04-27 09:45 | 29.97685 | -12.16255 | 31987 ft | 432 kts | 59° |
| 2026-04-27 09:46 | 30.01258 | -12.10658 | 31985 ft | 439 kts | 53° |
| 2026-04-27 09:46 | 30.05437 | -12.05419 | 31985 ft | 445 kts | 49° |
| 2026-04-27 09:47 | 30.09807 | -12.00396 | 31984 ft | 447 kts | 47° |
| 2026-04-27 09:47 | 30.14291 | -11.95384 | 31983 ft | 448 kts | 47° |
| 2026-04-27 09:48 | 30.18824 | -11.90347 | 31972 ft | 454 kts | 47° |
| 2026-04-27 09:48 | 30.23368 | -11.85266 | 31929 ft | 455 kts | 42° |
| 2026-04-27 09:49 | 30.27892 | -11.80206 | 31906 ft | 447 kts | 42° |
| 2026-04-27 09:49 | 30.32317 | -11.75257 | 31905 ft | 443 kts | 41° |
| 2026-04-27 09:50 | 30.36764 | -11.70272 | 31902 ft | 447 kts | 41° |
| 2026-04-27 09:50 | 30.40516 | -11.66063 | 31905 ft | 454 kts | 41° |
| 2026-04-27 09:51 | 30.45082 | -11.60924 | 31912 ft | 457 kts | 41° |
| 2026-04-27 09:51 | 30.49603 | -11.55822 | 31913 ft | 453 kts | 41° |
| 2026-04-27 09:52 | 30.54111 | -11.50720 | 31910 ft | 452 kts | 41° |
| 2026-04-27 09:52 | 30.58631 | -11.45602 | 31904 ft | 456 kts | 43° |
| 2026-04-27 09:53 | 30.63154 | -11.40464 | 31913 ft | 458 kts | 41° |
| 2026-04-27 09:53 | 30.67708 | -11.35284 | 31913 ft | 455 kts | 41° |
| 2026-04-27 09:54 | 30.72220 | -11.30145 | 31913 ft | 457 kts | 42° |
| 2026-04-27 09:54 | 30.76794 | -11.24934 | 31914 ft | 462 kts | 43° |
| 2026-04-27 09:55 | 30.81422 | -11.19658 | 31916 ft | 468 kts | 44° |
| 2026-04-27 09:55 | 30.88404 | -11.11666 | 31916 ft | 473 kts | 44° |
| 2026-04-27 09:56 | 30.93093 | -11.06286 | 31916 ft | 474 kts | 44° |
| 2026-04-27 09:56 | 30.97796 | -11.00881 | 31917 ft | 475 kts | 44° |
| 2026-04-27 09:57 | 31.02477 | -10.95495 | 31917 ft | 475 kts | 44° |
| 2026-04-27 09:57 | 31.07181 | -10.90074 | 31917 ft | 475 kts | 44° |
| 2026-04-27 09:58 | 31.11894 | -10.84636 | 31918 ft | 475 kts | 44° |
| 2026-04-27 09:58 | 31.16595 | -10.79204 | 31919 ft | 475 kts | 44° |
| 2026-04-27 09:59 | 31.21284 | -10.73778 | 31920 ft | 475 kts | 44° |
| 2026-04-27 09:59 | 31.25982 | -10.68334 | 31920 ft | 475 kts | 44° |
| 2026-04-27 10:00 | 31.30643 | -10.62924 | 31922 ft | 474 kts | 43° |
| 2026-04-27 10:00 | 31.35329 | -10.57477 | 31923 ft | 474 kts | 43° |
| 2026-04-27 10:01 | 31.39983 | -10.52056 | 31927 ft | 472 kts | 43° |
| 2026-04-27 10:01 | 31.44627 | -10.46638 | 31927 ft | 468 kts | 42° |
| 2026-04-27 10:02 | 31.49215 | -10.41282 | 31929 ft | 466 kts | 42° |
| 2026-04-27 10:02 | 31.53802 | -10.35920 | 31929 ft | 464 kts | 42° |
| 2026-04-27 10:03 | 31.58368 | -10.30576 | 31930 ft | 464 kts | 42° |
| 2026-04-27 10:03 | 31.62934 | -10.25225 | 31931 ft | 464 kts | 43° |
| 2026-04-27 10:04 | 31.67484 | -10.19885 | 31931 ft | 464 kts | 43° |
| 2026-04-27 10:04 | 31.72054 | -10.14512 | 31931 ft | 464 kts | 43° |
| 2026-04-27 10:05 | 31.76591 | -10.09171 | 31931 ft | 464 kts | 43° |
| 2026-04-27 10:05 | 31.81160 | -10.03783 | 31932 ft | 464 kts | 43° |
| 2026-04-27 10:06 | 31.85725 | -9.98392 | 31932 ft | 464 kts | 43° |
| 2026-04-27 10:06 | 31.90266 | -9.93021 | 31932 ft | 465 kts | 43° |
| 2026-04-27 10:07 | 31.94835 | -9.87609 | 31932 ft | 465 kts | 43° |
| 2026-04-27 10:07 | 31.99377 | -9.82220 | 31932 ft | 465 kts | 43° |
| 2026-04-27 10:08 | 32.03928 | -9.76813 | 31932 ft | 466 kts | 43° |
| 2026-04-27 10:08 | 32.08497 | -9.71376 | 31932 ft | 466 kts | 43° |
| 2026-04-27 10:09 | 32.13060 | -9.65937 | 31932 ft | 466 kts | 43° |
| 2026-04-27 10:09 | 32.17625 | -9.60489 | 31932 ft | 466 kts | 43° |
| 2026-04-27 10:10 | 32.22194 | -9.55026 | 31933 ft | 466 kts | 43° |
| 2026-04-27 10:10 | 32.26723 | -9.49605 | 31933 ft | 466 kts | 43° |
| 2026-04-27 10:11 | 32.31277 | -9.44144 | 31933 ft | 466 kts | 43° |
| 2026-04-27 10:11 | 32.35838 | -9.38666 | 31933 ft | 466 kts | 43° |
| 2026-04-27 10:12 | 32.40376 | -9.33209 | 31933 ft | 466 kts | 43° |
| 2026-04-27 10:12 | 32.44922 | -9.27732 | 31933 ft | 466 kts | 43° |
| 2026-04-27 10:13 | 32.49488 | -9.22223 | 31933 ft | 466 kts | 43° |
| 2026-04-27 10:13 | 32.54018 | -9.16749 | 31932 ft | 466 kts | 43° |
| 2026-04-27 10:14 | 32.58561 | -9.11252 | 31932 ft | 466 kts | 43° |
| 2026-04-27 10:14 | 32.63107 | -9.05742 | 31932 ft | 466 kts | 43° |
| 2026-04-27 10:15 | 32.67615 | -9.00269 | 31934 ft | 466 kts | 43° |
| 2026-04-27 10:15 | 32.72156 | -8.94751 | 31948 ft | 468 kts | 44° |
| 2026-04-27 10:16 | 32.76724 | -8.89191 | 31953 ft | 470 kts | 44° |
| 2026-04-27 10:16 | 32.81259 | -8.83660 | 31958 ft | 471 kts | 44° |
| 2026-04-27 10:17 | 32.85844 | -8.78060 | 31962 ft | 472 kts | 44° |
| 2026-04-27 10:17 | 32.90442 | -8.72436 | 31975 ft | 474 kts | 45° |
| 2026-04-27 10:18 | 32.95022 | -8.66822 | 31978 ft | 475 kts | 45° |
| 2026-04-27 10:18 | 32.99637 | -8.61156 | 31985 ft | 476 kts | 45° |
| 2026-04-27 10:19 | 33.04262 | -8.55467 | 31987 ft | 477 kts | 45° |
| 2026-04-27 10:19 | 33.08863 | -8.49801 | 31998 ft | 478 kts | 46° |
| 2026-04-27 10:20 | 33.13492 | -8.44085 | 32000 ft | 479 kts | 46° |
| 2026-04-27 10:20 | 33.18165 | -8.38443 | 32002 ft | 479 kts | 41° |
| 2026-04-27 10:21 | 33.23417 | -8.33529 | 32007 ft | 479 kts | 35° |
| 2026-04-27 10:21 | 33.28947 | -8.29122 | 32019 ft | 480 kts | 32° |
| 2026-04-27 10:22 | 33.34618 | -8.24860 | 32023 ft | 480 kts | 32° |
| 2026-04-27 10:22 | 33.40275 | -8.20679 | 32030 ft | 480 kts | 33° |
| 2026-04-27 10:23 | 33.45958 | -8.16480 | 32042 ft | 480 kts | 33° |
| 2026-04-27 10:23 | 33.51638 | -8.12259 | 32047 ft | 479 kts | 33° |
| 2026-04-27 10:24 | 33.57310 | -8.08018 | 32052 ft | 478 kts | 34° |
| 2026-04-27 10:24 | 33.62915 | -8.03808 | 32073 ft | 475 kts | 34° |
| 2026-04-27 10:25 | 33.68506 | -7.99587 | 32083 ft | 471 kts | 35° |
| 2026-04-27 10:25 | 33.74004 | -7.95419 | 32091 ft | 467 kts | 35° |
| 2026-04-27 10:26 | 33.79434 | -7.91287 | 32123 ft | 460 kts | 35° |
| 2026-04-27 10:26 | 33.84795 | -7.87199 | 32131 ft | 452 kts | 35° |
| 2026-04-27 10:27 | 33.90081 | -7.83157 | 32138 ft | 447 kts | 34° |
| 2026-04-27 10:27 | 33.95278 | -7.79175 | 32140 ft | 443 kts | 34° |
| 2026-04-27 10:28 | 34.00486 | -7.75177 | 32140 ft | 441 kts | 34° |
| 2026-04-27 10:28 | 34.05624 | -7.71226 | 32140 ft | 440 kts | 34° |
| 2026-04-27 10:29 | 34.08214 | -7.69213 | 32004 ft | 443 kts | 31° |
| 2026-04-27 10:29 | 34.10834 | -7.67200 | 31971 ft | 448 kts | 36° |
| 2026-04-27 10:29 | 34.16098 | -7.63160 | 32020 ft | 451 kts | 36° |
| 2026-04-27 10:30 | 34.21407 | -7.59063 | 32004 ft | 453 kts | 36° |
| 2026-04-27 10:30 | 34.26753 | -7.54922 | 31989 ft | 458 kts | 36° |
| 2026-04-27 10:31 | 34.32106 | -7.50773 | 32019 ft | 458 kts | 36° |
| 2026-04-27 10:31 | 34.37496 | -7.46569 | 31920 ft | 463 kts | 30° |
| 2026-04-27 10:32 | 34.42896 | -7.42360 | 31858 ft | 462 kts | 30° |
| 2026-04-27 10:32 | 34.48305 | -7.38156 | 31864 ft | 462 kts | 30° |
| 2026-04-27 10:33 | 34.53735 | -7.33935 | 31873 ft | 466 kts | 30° |
| 2026-04-27 10:33 | 34.59217 | -7.29661 | 31856 ft | 465 kts | 30° |
| 2026-04-27 10:34 | 34.64618 | -7.25443 | 31857 ft | 463 kts | 30° |
| 2026-04-27 10:34 | 34.70031 | -7.21206 | 31854 ft | 463 kts | 30° |
| 2026-04-27 10:35 | 34.75457 | -7.16953 | 31853 ft | 462 kts | 30° |
| 2026-04-27 10:35 | 34.79951 | -7.13425 | 31854 ft | 462 kts | 30° |
| 2026-04-27 10:36 | 34.86254 | -7.08469 | 31861 ft | 465 kts | 30° |
| 2026-04-27 10:36 | 34.90782 | -7.04903 | 31861 ft | 467 kts | 30° |
| 2026-04-27 10:37 | 34.97134 | -6.99890 | 31859 ft | 467 kts | 30° |
| 2026-04-27 10:37 | 35.01680 | -6.96298 | 31864 ft | 468 kts | 30° |
| 2026-04-27 10:38 | 35.07173 | -6.91950 | 31867 ft | 471 kts | 30° |
| 2026-04-27 10:38 | 35.12703 | -6.87566 | 31872 ft | 475 kts | 31° |
| 2026-04-27 10:39 | 35.18239 | -6.83173 | 31880 ft | 478 kts | 32° |
| 2026-04-27 10:39 | 35.23846 | -6.78713 | 31891 ft | 482 kts | 33° |
| 2026-04-27 10:40 | 35.29495 | -6.74211 | 31915 ft | 483 kts | 35° |
| 2026-04-27 10:40 | 35.35112 | -6.69756 | 31924 ft | 483 kts | 36° |
| 2026-04-27 10:41 | 35.40783 | -6.65355 | 31935 ft | 478 kts | 36° |
| 2026-04-27 10:41 | 35.46353 | -6.61065 | 31940 ft | 472 kts | 36° |
| 2026-04-27 10:42 | 35.51910 | -6.56788 | 31953 ft | 465 kts | 36° |
| 2026-04-27 10:42 | 35.57322 | -6.52618 | 31958 ft | 456 kts | 37° |
| 2026-04-27 10:43 | 35.62667 | -6.48488 | 31959 ft | 451 kts | 37° |
| 2026-04-27 10:43 | 35.67937 | -6.44401 | 31959 ft | 447 kts | 37° |
| 2026-04-27 10:44 | 35.73198 | -6.40307 | 31958 ft | 445 kts | 37° |
| 2026-04-27 10:44 | 35.78394 | -6.36256 | 31957 ft | 443 kts | 37° |
| 2026-04-27 10:45 | 35.83574 | -6.32122 | 31954 ft | 442 kts | 38° |
| 2026-04-27 10:45 | 35.88641 | -6.27900 | 31955 ft | 441 kts | 39° |
| 2026-04-27 10:46 | 35.93708 | -6.23593 | 31958 ft | 440 kts | 39° |
| 2026-04-27 10:46 | 35.98715 | -6.19301 | 31960 ft | 440 kts | 39° |
| 2026-04-27 10:47 | 36.03746 | -6.14974 | 31962 ft | 440 kts | 39° |
| 2026-04-27 10:47 | 36.08769 | -6.10645 | 31970 ft | 440 kts | 39° |
| 2026-04-27 10:48 | 36.13775 | -6.06330 | 31977 ft | 440 kts | 39° |
| 2026-04-27 10:48 | 36.18807 | -6.01989 | 31982 ft | 439 kts | 39° |
| 2026-04-27 10:49 | 36.23665 | -5.97455 | 31994 ft | 435 kts | 44° |
| 2026-04-27 10:49 | 36.28125 | -5.92415 | 32014 ft | 436 kts | 47° |
| 2026-04-27 10:50 | 36.32452 | -5.87123 | 32016 ft | 438 kts | 49° |
| 2026-04-27 10:50 | 36.36730 | -5.81746 | 32038 ft | 436 kts | 49° |
| 2026-04-27 10:51 | 36.40979 | -5.76366 | 32024 ft | 435 kts | 49° |
| 2026-04-27 10:51 | 36.45211 | -5.70998 | 32010 ft | 437 kts | 49° |
| 2026-04-27 10:52 | 36.49471 | -5.65593 | 32011 ft | 438 kts | 49° |
| 2026-04-27 10:52 | 36.53715 | -5.60211 | 32026 ft | 437 kts | 49° |
| 2026-04-27 10:53 | 36.60108 | -5.52101 | 32016 ft | 436 kts | 48° |
| 2026-04-27 10:54 | 36.64330 | -5.46740 | 32007 ft | 434 kts | 48° |
| 2026-04-27 10:54 | 36.68549 | -5.41380 | 32015 ft | 433 kts | 48° |
| 2026-04-27 10:55 | 36.72774 | -5.36007 | 32036 ft | 434 kts | 49° |
| 2026-04-27 10:55 | 36.76999 | -5.30618 | 32024 ft | 435 kts | 48° |
| 2026-04-27 10:56 | 36.81200 | -5.25252 | 32013 ft | 434 kts | 48° |
| 2026-04-27 10:56 | 36.85424 | -5.19852 | 32016 ft | 434 kts | 48° |
| 2026-04-27 10:57 | 36.89645 | -5.14448 | 32027 ft | 435 kts | 49° |
| 2026-04-27 10:57 | 36.93866 | -5.09029 | 32034 ft | 437 kts | 49° |
| 2026-04-27 10:58 | 36.98110 | -5.03570 | 32026 ft | 437 kts | 49° |
| 2026-04-27 10:58 | 37.02352 | -4.98104 | 32029 ft | 437 kts | 49° |
| 2026-04-27 10:59 | 37.07171 | -4.93427 | 32039 ft | 445 kts | 34° |
| 2026-04-27 10:59 | 37.12725 | -4.89860 | 32049 ft | 450 kts | 28° |
| 2026-04-27 11:00 | 37.21398 | -4.85280 | 32050 ft | 453 kts | 25° |
| 2026-04-27 11:00 | 37.27240 | -4.82346 | 32051 ft | 454 kts | 25° |
| 2026-04-27 11:01 | 37.33117 | -4.79389 | 32040 ft | 454 kts | 25° |
| 2026-04-27 11:01 | 37.38979 | -4.76405 | 32045 ft | 454 kts | 25° |
| 2026-04-27 11:02 | 37.44798 | -4.73409 | 32045 ft | 454 kts | 26° |
| 2026-04-27 11:02 | 37.50613 | -4.70385 | 32039 ft | 454 kts | 26° |
| 2026-04-27 11:03 | 37.56464 | -4.67320 | 32057 ft | 454 kts | 26° |
| 2026-04-27 11:03 | 37.62285 | -4.64255 | 32062 ft | 453 kts | 26° |
| 2026-04-27 11:04 | 37.68123 | -4.61171 | 32056 ft | 454 kts | 26° |
| 2026-04-27 11:04 | 37.73920 | -4.58098 | 32056 ft | 455 kts | 26° |
| 2026-04-27 11:05 | 37.79777 | -4.54987 | 32055 ft | 455 kts | 26° |
| 2026-04-27 11:05 | 37.85599 | -4.51888 | 32053 ft | 456 kts | 26° |
| 2026-04-27 11:06 | 37.91458 | -4.48770 | 32054 ft | 456 kts | 26° |
| 2026-04-27 11:06 | 37.97284 | -4.45665 | 32054 ft | 456 kts | 26° |
| 2026-04-27 11:07 | 38.03167 | -4.42524 | 32055 ft | 456 kts | 26° |
| 2026-04-27 11:07 | 38.08975 | -4.39417 | 32056 ft | 455 kts | 26° |
| 2026-04-27 11:08 | 38.14825 | -4.36282 | 32056 ft | 454 kts | 26° |
| 2026-04-27 11:08 | 38.20664 | -4.33146 | 32055 ft | 455 kts | 26° |
| 2026-04-27 11:09 | 38.26452 | -4.30031 | 32056 ft | 455 kts | 26° |
| 2026-04-27 11:09 | 38.32292 | -4.26882 | 32056 ft | 455 kts | 26° |
| 2026-04-27 11:10 | 38.38120 | -4.23734 | 32055 ft | 455 kts | 26° |
| 2026-04-27 11:10 | 38.43966 | -4.20571 | 32057 ft | 455 kts | 26° |
| 2026-04-27 11:11 | 38.49763 | -4.17429 | 32057 ft | 454 kts | 26° |
| 2026-04-27 11:11 | 38.55571 | -4.14275 | 32056 ft | 454 kts | 26° |
| 2026-04-27 11:12 | 38.61401 | -4.11104 | 32057 ft | 454 kts | 26° |
| 2026-04-27 11:12 | 38.67191 | -4.07948 | 32059 ft | 454 kts | 26° |
| 2026-04-27 11:13 | 38.73026 | -4.04762 | 32065 ft | 455 kts | 26° |
| 2026-04-27 11:13 | 38.78841 | -4.01580 | 32067 ft | 456 kts | 26° |
| 2026-04-27 11:14 | 38.84682 | -3.98378 | 32068 ft | 457 kts | 26° |
| 2026-04-27 11:14 | 38.90532 | -3.95166 | 32073 ft | 457 kts | 26° |
| 2026-04-27 11:15 | 38.96350 | -3.91964 | 32078 ft | 456 kts | 26° |
| 2026-04-27 11:15 | 39.02192 | -3.88747 | 32081 ft | 456 kts | 26° |
| 2026-04-27 11:16 | 39.08002 | -3.85543 | 32111 ft | 453 kts | 25° |
| 2026-04-27 11:16 | 39.13782 | -3.82352 | 32122 ft | 449 kts | 25° |
| 2026-04-27 11:17 | 39.19475 | -3.79204 | 32128 ft | 447 kts | 25° |
| 2026-04-27 11:17 | 39.25204 | -3.76028 | 32144 ft | 445 kts | 25° |
| 2026-04-27 11:18 | 39.30865 | -3.72884 | 32145 ft | 445 kts | 25° |
| 2026-04-27 11:18 | 39.36551 | -3.69718 | 32146 ft | 445 kts | 25° |
| 2026-04-27 11:19 | 39.42252 | -3.66538 | 32150 ft | 444 kts | 25° |
| 2026-04-27 11:19 | 39.47911 | -3.63375 | 32150 ft | 444 kts | 25° |
| 2026-04-27 11:20 | 39.53569 | -3.60205 | 32150 ft | 444 kts | 25° |
| 2026-04-27 11:20 | 39.59254 | -3.57016 | 32150 ft | 444 kts | 25° |
| 2026-04-27 11:21 | 39.64935 | -3.53824 | 32150 ft | 444 kts | 25° |
| 2026-04-27 11:21 | 39.70606 | -3.50631 | 32149 ft | 444 kts | 26° |
| 2026-04-27 11:22 | 39.76215 | -3.47358 | 32151 ft | 444 kts | 28° |
| 2026-04-27 11:22 | 39.81596 | -3.43429 | 32150 ft | 443 kts | 33° |
| 2026-04-27 11:23 | 39.86822 | -3.39128 | 32149 ft | 443 kts | 35° |
| 2026-04-27 11:23 | 39.91942 | -3.34723 | 32148 ft | 444 kts | 36° |
| 2026-04-27 11:24 | 39.97087 | -3.30236 | 32148 ft | 444 kts | 36° |
| 2026-04-27 11:24 | 40.02235 | -3.25739 | 32140 ft | 448 kts | 36° |
| 2026-04-27 11:25 | 40.07452 | -3.21183 | 32142 ft | 457 kts | 36° |
| 2026-04-27 11:25 | 40.12788 | -3.16532 | 32141 ft | 462 kts | 36° |
| 2026-04-27 11:26 | 40.18122 | -3.11889 | 32141 ft | 465 kts | 36° |
| 2026-04-27 11:26 | 40.23537 | -3.07177 | 32141 ft | 467 kts | 36° |
| 2026-04-27 11:27 | 40.28944 | -3.02469 | 32141 ft | 469 kts | 36° |
| 2026-04-27 11:27 | 40.33476 | -2.98520 | 32141 ft | 470 kts | 36° |
| 2026-04-27 11:28 | 40.38940 | -2.93750 | 32141 ft | 471 kts | 36° |
| 2026-04-27 11:28 | 40.44381 | -2.88987 | 32141 ft | 471 kts | 36° |
| 2026-04-27 11:29 | 40.49853 | -2.84187 | 32141 ft | 472 kts | 36° |
| 2026-04-27 11:29 | 40.55324 | -2.79378 | 32141 ft | 472 kts | 36° |
| 2026-04-27 11:30 | 40.60761 | -2.74588 | 32140 ft | 471 kts | 36° |
| 2026-04-27 11:30 | 40.66230 | -2.69758 | 32141 ft | 471 kts | 36° |
| 2026-04-27 11:31 | 40.71640 | -2.64972 | 32142 ft | 470 kts | 36° |
| 2026-04-27 11:31 | 40.77064 | -2.60162 | 32143 ft | 469 kts | 36° |
| 2026-04-27 11:32 | 40.82471 | -2.55354 | 32152 ft | 468 kts | 36° |
| 2026-04-27 11:32 | 40.85174 | -2.52948 | 32307 ft | 466 kts | 36° |
| 2026-04-27 11:32 | 40.87864 | -2.50550 | 32519 ft | 465 kts | 36° |
| 2026-04-27 11:33 | 40.90508 | -2.48189 | 32737 ft | 466 kts | 36° |
| 2026-04-27 11:33 | 40.93194 | -2.45789 | 32961 ft | 467 kts | 37° |
| 2026-04-27 11:33 | 40.95895 | -2.43373 | 33185 ft | 467 kts | 37° |
| 2026-04-27 11:33 | 40.98588 | -2.40960 | 33409 ft | 468 kts | 37° |
| 2026-04-27 11:34 | 41.01256 | -2.38478 | 33634 ft | 467 kts | 38° |
| 2026-04-27 11:34 | 41.03869 | -2.35914 | 33858 ft | 467 kts | 40° |
| 2026-04-27 11:34 | 41.06460 | -2.33287 | 34026 ft | 468 kts | 41° |
| 2026-04-27 11:34 | 41.08990 | -2.30666 | 34126 ft | 467 kts | 41° |
| 2026-04-27 11:35 | 41.14055 | -2.25324 | 34158 ft | 463 kts | 42° |
| 2026-04-27 11:35 | 41.19070 | -2.19975 | 34153 ft | 458 kts | 42° |
| 2026-04-27 11:36 | 41.24019 | -2.14672 | 34154 ft | 455 kts | 42° |
| 2026-04-27 11:36 | 41.28904 | -2.09428 | 34154 ft | 453 kts | 42° |
| 2026-04-27 11:37 | 41.33805 | -2.04161 | 34153 ft | 451 kts | 42° |
| 2026-04-27 11:37 | 41.38685 | -1.98910 | 34152 ft | 450 kts | 42° |
| 2026-04-27 11:38 | 41.43558 | -1.93662 | 34150 ft | 450 kts | 42° |
| 2026-04-27 11:38 | 41.48422 | -1.88416 | 34150 ft | 449 kts | 42° |
| 2026-04-27 11:39 | 41.53255 | -1.83196 | 34148 ft | 448 kts | 42° |
| 2026-04-27 11:39 | 41.58103 | -1.77950 | 34147 ft | 448 kts | 42° |
| 2026-04-27 11:40 | 41.62916 | -1.72733 | 34147 ft | 447 kts | 42° |
| 2026-04-27 11:40 | 41.67735 | -1.67497 | 34148 ft | 445 kts | 41° |
| 2026-04-27 11:41 | 41.72524 | -1.62288 | 34144 ft | 442 kts | 42° |
| 2026-04-27 11:41 | 41.77309 | -1.57076 | 34143 ft | 442 kts | 42° |
| 2026-04-27 11:42 | 41.82064 | -1.51881 | 34143 ft | 444 kts | 42° |
| 2026-04-27 11:42 | 41.86853 | -1.46635 | 34145 ft | 443 kts | 42° |
| 2026-04-27 11:43 | 41.91635 | -1.41390 | 34145 ft | 443 kts | 42° |
| 2026-04-27 11:43 | 41.96382 | -1.36173 | 34142 ft | 445 kts | 43° |
| 2026-04-27 11:44 | 42.01183 | -1.30884 | 34142 ft | 446 kts | 43° |
| 2026-04-27 11:44 | 42.06012 | -1.25547 | 34146 ft | 451 kts | 43° |
| 2026-04-27 11:45 | 42.10062 | -1.21066 | 34148 ft | 456 kts | 42° |
| 2026-04-27 11:45 | 42.15793 | -1.14724 | 34146 ft | 458 kts | 43° |
| 2026-04-27 11:46 | 42.20713 | -1.09273 | 34144 ft | 457 kts | 42° |
| 2026-04-27 11:46 | 42.25653 | -1.03781 | 34149 ft | 462 kts | 42° |
| 2026-04-27 11:47 | 42.30631 | -0.98232 | 34151 ft | 466 kts | 42° |
| 2026-04-27 11:47 | 42.35610 | -0.92673 | 34151 ft | 468 kts | 43° |
| 2026-04-27 11:48 | 42.40618 | -0.87015 | 34151 ft | 468 kts | 44° |
| 2026-04-27 11:48 | 42.45156 | -0.80683 | 34155 ft | 469 kts | 51° |
| 2026-04-27 11:49 | 42.49279 | -0.73893 | 34159 ft | 469 kts | 54° |
| 2026-04-27 11:49 | 42.53251 | -0.66895 | 34161 ft | 466 kts | 56° |
| 2026-04-27 11:50 | 42.57134 | -0.59893 | 34164 ft | 464 kts | 56° |
| 2026-04-27 11:50 | 42.61022 | -0.52851 | 34170 ft | 466 kts | 55° |
| 2026-04-27 11:51 | 42.64906 | -0.45841 | 34172 ft | 466 kts | 56° |
| 2026-04-27 11:52 | 42.70747 | -0.35357 | 34168 ft | 459 kts | 56° |
| 2026-04-27 11:52 | 42.74580 | -0.28489 | 34166 ft | 452 kts | 55° |
| 2026-04-27 11:53 | 42.78358 | -0.21754 | 34166 ft | 449 kts | 55° |
| 2026-04-27 11:53 | 42.82248 | -0.15101 | 34166 ft | 450 kts | 54° |
| 2026-04-27 11:54 | 42.86222 | -0.08444 | 34169 ft | 455 kts | 53° |
| 2026-04-27 11:54 | 42.90239 | -0.01751 | 34173 ft | 456 kts | 52° |
| 2026-04-27 11:55 | 42.94243 | 0.04941 | 34160 ft | 457 kts | 49° |
| 2026-04-27 11:55 | 42.98289 | 0.11702 | 34166 ft | 462 kts | 48° |
| 2026-04-27 11:56 | 43.02338 | 0.18474 | 34160 ft | 456 kts | 48° |
| 2026-04-27 11:56 | 43.06306 | 0.25126 | 34160 ft | 452 kts | 48° |
| 2026-04-27 11:57 | 43.10260 | 0.31775 | 34158 ft | 449 kts | 48° |
| 2026-04-27 11:57 | 43.14189 | 0.38398 | 34157 ft | 448 kts | 48° |
| 2026-04-27 11:58 | 43.18113 | 0.45030 | 34158 ft | 447 kts | 48° |
| 2026-04-27 11:58 | 43.22024 | 0.51656 | 34162 ft | 447 kts | 48° |
| 2026-04-27 11:59 | 43.25923 | 0.58282 | 34159 ft | 447 kts | 48° |
| 2026-04-27 11:59 | 43.29822 | 0.64923 | 34153 ft | 446 kts | 48° |
| 2026-04-27 12:00 | 43.33717 | 0.71573 | 34155 ft | 446 kts | 48° |
| 2026-04-27 12:00 | 43.37576 | 0.78178 | 34162 ft | 446 kts | 48° |
| 2026-04-27 12:01 | 43.41460 | 0.84842 | 34160 ft | 446 kts | 48° |
| 2026-04-27 12:01 | 43.45342 | 0.91518 | 34152 ft | 446 kts | 48° |
| 2026-04-27 12:02 | 43.49214 | 0.98194 | 34159 ft | 446 kts | 48° |
| 2026-04-27 12:02 | 43.53078 | 1.04870 | 34166 ft | 446 kts | 49° |
| 2026-04-27 12:03 | 43.56945 | 1.11568 | 34166 ft | 446 kts | 49° |
| 2026-04-27 12:03 | 43.60785 | 1.18236 | 34165 ft | 446 kts | 49° |
| 2026-04-27 12:04 | 43.64637 | 1.24944 | 34168 ft | 446 kts | 49° |
| 2026-04-27 12:04 | 43.68449 | 1.31716 | 34168 ft | 446 kts | 50° |
| 2026-04-27 12:05 | 43.72178 | 1.38561 | 34169 ft | 446 kts | 50° |
| 2026-04-27 12:05 | 43.75883 | 1.45473 | 34170 ft | 447 kts | 50° |
| 2026-04-27 12:06 | 43.79546 | 1.52359 | 34170 ft | 447 kts | 51° |
| 2026-04-27 12:06 | 43.83233 | 1.59316 | 34170 ft | 448 kts | 51° |
| 2026-04-27 12:07 | 43.86939 | 1.66324 | 34170 ft | 453 kts | 51° |
| 2026-04-27 12:07 | 43.90691 | 1.73432 | 34171 ft | 458 kts | 51° |
| 2026-04-27 12:08 | 43.94431 | 1.80568 | 34170 ft | 461 kts | 51° |
| 2026-04-27 12:08 | 43.98143 | 1.87845 | 34170 ft | 462 kts | 52° |
| 2026-04-27 12:09 | 44.01828 | 1.95183 | 34170 ft | 464 kts | 52° |
| 2026-04-27 12:09 | 44.05517 | 2.02587 | 34170 ft | 465 kts | 52° |
| 2026-04-27 12:10 | 44.09194 | 2.10001 | 34170 ft | 466 kts | 52° |
| 2026-04-27 12:10 | 44.12844 | 2.17382 | 34170 ft | 466 kts | 52° |
| 2026-04-27 12:11 | 44.16514 | 2.24826 | 34170 ft | 465 kts | 52° |
| 2026-04-27 12:11 | 44.20177 | 2.32271 | 34170 ft | 465 kts | 53° |
| 2026-04-27 12:12 | 44.23830 | 2.39715 | 34170 ft | 465 kts | 53° |
| 2026-04-27 12:12 | 44.27453 | 2.47113 | 34170 ft | 464 kts | 53° |
| 2026-04-27 12:13 | 44.31093 | 2.54568 | 34170 ft | 464 kts | 53° |
| 2026-04-27 12:13 | 44.34724 | 2.62022 | 34170 ft | 464 kts | 53° |
| 2026-04-27 12:14 | 44.38362 | 2.69500 | 34172 ft | 465 kts | 57° |
| 2026-04-27 12:14 | 44.41376 | 2.75672 | 34171 ft | 459 kts | 57° |
| 2026-04-27 12:15 | 44.45508 | 2.84213 | 34169 ft | 452 kts | 57° |
| 2026-04-27 12:15 | 44.48417 | 2.90260 | 34170 ft | 449 kts | 58° |
| 2026-04-27 12:16 | 44.51895 | 2.97510 | 34170 ft | 447 kts | 58° |
| 2026-04-27 12:16 | 44.55362 | 3.04755 | 34170 ft | 446 kts | 58° |
| 2026-04-27 12:17 | 44.58814 | 3.11994 | 34170 ft | 446 kts | 58° |
| 2026-04-27 12:17 | 44.62101 | 3.19400 | 34170 ft | 446 kts | 60° |
| 2026-04-27 12:18 | 44.65219 | 3.26930 | 34170 ft | 446 kts | 62° |
| 2026-04-27 12:18 | 44.68259 | 3.34514 | 34170 ft | 446 kts | 62° |
| 2026-04-27 12:19 | 44.71256 | 3.42086 | 34170 ft | 446 kts | 62° |
| 2026-04-27 12:19 | 44.74266 | 3.49721 | 34170 ft | 446 kts | 62° |
| 2026-04-27 12:20 | 44.77286 | 3.57358 | 34170 ft | 446 kts | 62° |
| 2026-04-27 12:20 | 44.80291 | 3.64935 | 34170 ft | 446 kts | 62° |
| 2026-04-27 12:21 | 44.83323 | 3.72590 | 34170 ft | 446 kts | 62° |
| 2026-04-27 12:21 | 44.86338 | 3.80224 | 34169 ft | 445 kts | 62° |
| 2026-04-27 12:22 | 44.89325 | 3.87811 | 34170 ft | 445 kts | 62° |
| 2026-04-27 12:22 | 44.92325 | 3.95460 | 34169 ft | 445 kts | 62° |
| 2026-04-27 12:23 | 44.95313 | 4.03104 | 34166 ft | 444 kts | 62° |
| 2026-04-27 12:23 | 44.98289 | 4.10742 | 34166 ft | 443 kts | 63° |
| 2026-04-27 12:24 | 45.01129 | 4.18470 | 34171 ft | 442 kts | 66° |
| 2026-04-27 12:24 | 45.02341 | 4.22418 | 33924 ft | 447 kts | 69° |
| 2026-04-27 12:24 | 45.03501 | 4.26547 | 33034 ft | 455 kts | 70° |
| 2026-04-27 12:24 | 45.04602 | 4.30737 | 32094 ft | 450 kts | 71° |
| 2026-04-27 12:25 | 45.05185 | 4.33018 | 31573 ft | 445 kts | 71° |
| 2026-04-27 12:25 | 45.06015 | 4.36278 | 30815 ft | 437 kts | 71° |
| 2026-04-27 12:25 | 45.07029 | 4.40280 | 29865 ft | 428 kts | 71° |
| 2026-04-27 12:25 | 45.07997 | 4.44223 | 28913 ft | 419 kts | 72° |
| 2026-04-27 12:26 | 45.08919 | 4.48107 | 27952 ft | 412 kts | 72° |
| 2026-04-27 12:26 | 45.09813 | 4.51935 | 26858 ft | 407 kts | 72° |
| 2026-04-27 12:26 | 45.10689 | 4.55709 | 25719 ft | 401 kts | 72° |
| 2026-04-27 12:26 | 45.11546 | 4.59404 | 24581 ft | 396 kts | 72° |
| 2026-04-27 12:27 | 45.12405 | 4.63090 | 23429 ft | 391 kts | 72° |
| 2026-04-27 12:27 | 45.13259 | 4.66733 | 22275 ft | 386 kts | 72° |
| 2026-04-27 12:27 | 45.14103 | 4.70318 | 21126 ft | 382 kts | 72° |
| 2026-04-27 12:27 | 45.14934 | 4.73827 | 19988 ft | 378 kts | 72° |
| 2026-04-27 12:28 | 45.15770 | 4.77339 | 18836 ft | 373 kts | 71° |
| 2026-04-27 12:28 | 45.16702 | 4.80739 | 17680 ft | 369 kts | 63° |
| 2026-04-27 12:28 | 45.18260 | 4.83600 | 16531 ft | 367 kts | 44° |
| 2026-04-27 12:28 | 45.20378 | 4.85612 | 15399 ft | 366 kts | 28° |
| 2026-04-27 12:29 | 45.22726 | 4.86973 | 14269 ft | 363 kts | 21° |
| 2026-04-27 12:29 | 45.25141 | 4.88020 | 13128 ft | 361 kts | 17° |
| 2026-04-27 12:29 | 45.27542 | 4.88902 | 12357 ft | 349 kts | 15° |
| 2026-04-27 12:29 | 45.29865 | 4.89688 | 11630 ft | 337 kts | 15° |
| 2026-04-27 12:30 | 45.32027 | 4.90788 | 10990 ft | 322 kts | 29° |
| 2026-04-27 12:30 | 45.33808 | 4.92377 | 11031 ft | 293 kts | 36° |
| 2026-04-27 12:30 | 45.35400 | 4.94076 | 11003 ft | 281 kts | 39° |
| 2026-04-27 12:30 | 45.36914 | 4.95811 | 10999 ft | 278 kts | 40° |
| 2026-04-27 12:31 | 45.38398 | 4.97557 | 10999 ft | 275 kts | 41° |
| 2026-04-27 12:31 | 45.39873 | 4.99310 | 10861 ft | 279 kts | 41° |
| 2026-04-27 12:31 | 45.41360 | 5.01086 | 10493 ft | 274 kts | 41° |
| 2026-04-27 12:31 | 45.42799 | 5.02805 | 9801 ft | 269 kts | 41° |
| 2026-04-27 12:32 | 45.44228 | 5.04520 | 9041 ft | 264 kts | 41° |
| 2026-04-27 12:32 | 45.45605 | 5.06172 | 8296 ft | 255 kts | 41° |
| 2026-04-27 12:32 | 45.47055 | 5.07572 | 7504 ft | 250 kts | 26° |
| 2026-04-27 12:32 | 45.48738 | 5.08083 | 6827 ft | 245 kts | 8° |
| 2026-04-27 12:33 | 45.50407 | 5.08281 | 6078 ft | 234 kts | 6° |
| 2026-04-27 12:33 | 45.51970 | 5.08580 | 5291 ft | 224 kts | 11° |
| 2026-04-27 12:33 | 45.53420 | 5.09113 | 4556 ft | 209 kts | 18° |
| 2026-04-27 12:33 | 45.54745 | 5.09882 | 3939 ft | 198 kts | 25° |
| 2026-04-27 12:34 | 45.55925 | 5.10752 | 3434 ft | 186 kts | 26° |
| 2026-04-27 12:34 | 45.57155 | 5.11020 | 2967 ft | 171 kts | 1° |
| 2026-04-27 12:34 | 45.58322 | 5.10840 | 2480 ft | 167 kts | 353° |
| 2026-04-27 12:34 | 45.59453 | 5.10591 | 1929 ft | 162 kts | 352° |
| 2026-04-27 12:35 | 45.60538 | 5.10380 | 1527 ft | 148 kts | 353° |
| 2026-04-27 12:35 | 45.61523 | 5.10220 | 1462 ft | 142 kts | 354° |
| 2026-04-27 12:35 | 45.62541 | 5.10078 | 1473 ft | 149 kts | 354° |
| 2026-04-27 12:35 | 45.63576 | 5.09947 | 1460 ft | 152 kts | 355° |
| 2026-04-27 12:36 | 45.64635 | 5.09818 | 1442 ft | 154 kts | 355° |
| 2026-04-27 12:36 | 45.65704 | 5.09688 | 1422 ft | 155 kts | 355° |
| 2026-04-27 12:36 | 45.66784 | 5.09556 | 1399 ft | 155 kts | 355° |
| 2026-04-27 12:36 | 45.67849 | 5.09426 | 1363 ft | 152 kts | 355° |
| 2026-04-27 12:37 | 45.68894 | 5.09298 | 1323 ft | 150 kts | 355° |
| 2026-04-27 12:37 | 45.69942 | 5.09169 | 1176 ft | 152 kts | 355° |
| 2026-04-27 12:37 | 45.71001 | 5.09044 | 925 ft | 154 kts | 355° |
| 2026-04-27 12:37 | 45.72019 | 5.08925 | 845 ft | 134 kts | 355° |
| 2026-04-27 12:38 | 45.72750 | 5.08840 | 830 ft | 75 kts | 355° |
| 2026-04-27 12:38 | 45.73101 | 5.08799 | 830 ft | 31 kts | 355° |
| 2026-04-27 12:38 | 45.73226 | 5.08785 | 830 ft | 16 kts | 355° |
| 2026-04-27 12:38 | 45.73388 | 5.08766 | 830 ft | 32 kts | 355° |
| 2026-04-27 12:39 | 45.73603 | 5.08741 | 830 ft | 27 kts | 355° |
| 2026-04-27 12:39 | 45.73716 | 5.08656 | 830 ft | 13 kts | 284° |
| 2026-04-27 12:39 | 45.73728 | 5.08570 | 830 ft | 5 kts | 281° |
| 2026-04-27 12:39 | 45.73731 | 5.08551 | 830 ft | 0 kts | 281° |
| 2026-04-27 12:40 | 45.73733 | 5.08535 | 830 ft | 4 kts | 281° |
| 2026-04-27 12:40 | 45.73742 | 5.08473 | 830 ft | 9 kts | 281° |
| 2026-04-27 12:40 | 45.73760 | 5.08363 | 830 ft | 14 kts | 286° |
| 2026-04-27 12:41 | 45.73788 | 5.08219 | 830 ft | 16 kts | 285° |
| 2026-04-27 12:41 | 45.73793 | 5.08150 | 830 ft | 5 kts | 242° |
| 2026-04-27 12:41 | 45.73762 | 5.08115 | 830 ft | 6 kts | 181° |
| 2026-04-27 12:41 | 45.73702 | 5.08119 | 830 ft | 11 kts | 177° |
| 2026-04-27 12:42 | 45.73607 | 5.08127 | 830 ft | 16 kts | 174° |
| 2026-04-27 12:42 | 45.73487 | 5.08146 | 830 ft | 19 kts | 173° |
| 2026-04-27 12:42 | 45.73346 | 5.08168 | 830 ft | 22 kts | 173° |
| 2026-04-27 12:42 | 45.73206 | 5.08191 | 830 ft | 19 kts | 173° |
| 2026-04-27 12:43 | 45.73062 | 5.08214 | 830 ft | 23 kts | 173° |
| 2026-04-27 12:43 | 45.72892 | 5.08234 | 830 ft | 26 kts | 177° |
| 2026-04-27 12:43 | 45.72718 | 5.08247 | 830 ft | 24 kts | 175° |
| 2026-04-27 12:43 | 45.72549 | 5.08275 | 830 ft | 21 kts | 174° |
| 2026-04-27 12:44 | 45.72420 | 5.08293 | 830 ft | 19 kts | 174° |
| 2026-04-27 12:44 | 45.72282 | 5.08311 | 830 ft | 21 kts | 174° |
| 2026-04-27 12:44 | 45.72138 | 5.08331 | 830 ft | 17 kts | 174° |
| 2026-04-27 12:44 | 45.72021 | 5.08347 | 830 ft | 15 kts | 174° |
| 2026-04-27 12:45 | 45.71941 | 5.08357 | 830 ft | 8 kts | 174° |
| 2026-04-27 12:45 | 45.71902 | 5.08328 | 830 ft | 5 kts | 248° |
| 2026-04-27 12:45 | 45.71906 | 5.08278 | 830 ft | 6 kts | 283° |
| 2026-04-27 12:45 | 45.71917 | 5.08211 | 830 ft | 8 kts | 283° |
| 2026-04-27 12:46 | 45.71928 | 5.08122 | 830 ft | 8 kts | 257° |
| 2026-04-27 12:46 | 45.71891 | 5.08056 | 830 ft | 10 kts | 230° |
| 2026-04-27 12:46 | 45.71888 | 5.08012 | 830 ft | 0 kts | 296° |
| 2026-04-27 12:51 | 28.04563 | -16.58211 | 209 ft | 0 kts | 338° |